sensor_id;sensor_type;location;lat;lon;timestamp;temperature;humidity
69598;SHT31;70000;51.176;-115.568;2023-08-08T00:00:54;26.74;31.75
69598;SHT31;70000;51.176;-115.568;2023-08-08T00:03:30;26.69;31.91
69598;SHT31;70000;51.176;-115.568;2023-08-08T00:06:03;26.63;32.31
69598;SHT31;70000;51.176;-115.568;2023-08-08T00:08:45;26.53;32.29
69598;SHT31;70000;51.176;-115.568;2023-08-08T00:11:27;26.46;32.64
69598;SHT31;70000;51.176;-115.568;2023-08-08T00:14:12;26.38;32.77
69598;SHT31;70000;51.176;-115.568;2023-08-08T00:16:50;26.29;32.95
69598;SHT31;70000;51.176;-115.568;2023-08-08T00:19:34;26.20;33.06
69598;SHT31;70000;51.176;-115.568;2023-08-08T00:22:33;26.10;33.35
69598;SHT31;70000;51.176;-115.568;2023-08-08T00:25:42;26.01;33.64
69598;SHT31;70000;51.176;-115.568;2023-08-08T00:28:28;25.92;33.71
69598;SHT31;70000;51.176;-115.568;2023-08-08T00:35:07;25.71;33.04
69598;SHT31;70000;51.176;-115.568;2023-08-08T00:37:43;25.64;32.70
69598;SHT31;70000;51.176;-115.568;2023-08-08T00:40:13;25.56;31.90
69598;SHT31;70000;51.176;-115.568;2023-08-08T00:43:00;25.50;32.49
69598;SHT31;70000;51.176;-115.568;2023-08-08T00:45:30;25.45;32.76
69598;SHT31;70000;51.176;-115.568;2023-08-08T00:51:40;25.29;32.98
69598;SHT31;70000;51.176;-115.568;2023-08-08T00:54:10;25.20;33.54
69598;SHT31;70000;51.176;-115.568;2023-08-08T00:56:41;25.11;37.01
69598;SHT31;70000;51.176;-115.568;2023-08-08T00:59:12;24.95;40.41
69598;SHT31;70000;51.176;-115.568;2023-08-08T01:01:46;24.60;44.26
69598;SHT31;70000;51.176;-115.568;2023-08-08T01:04:19;24.20;49.90
69598;SHT31;70000;51.176;-115.568;2023-08-08T01:07:01;23.68;51.96
69598;SHT31;70000;51.176;-115.568;2023-08-08T01:09:59;23.23;54.19
69598;SHT31;70000;51.176;-115.568;2023-08-08T01:13:16;22.84;55.50
69598;SHT31;70000;51.176;-115.568;2023-08-08T01:15:51;22.54;54.59
69598;SHT31;70000;51.176;-115.568;2023-08-08T01:18:23;22.31;55.98
69598;SHT31;70000;51.176;-115.568;2023-08-08T01:20:54;22.10;52.22
69598;SHT31;70000;51.176;-115.568;2023-08-08T01:23:30;21.89;49.01
69598;SHT31;70000;51.176;-115.568;2023-08-08T01:26:21;21.65;48.90
69598;SHT31;70000;51.176;-115.568;2023-08-08T01:28:52;21.49;49.28
69598;SHT31;70000;51.176;-115.568;2023-08-08T01:31:27;21.22;54.74
69598;SHT31;70000;51.176;-115.568;2023-08-08T01:33:59;20.64;57.98
69598;SHT31;70000;51.176;-115.568;2023-08-08T01:36:30;20.04;60.88
69598;SHT31;70000;51.176;-115.568;2023-08-08T01:39:26;19.66;62.00
69598;SHT31;70000;51.176;-115.568;2023-08-08T01:41:59;19.39;62.22
69598;SHT31;70000;51.176;-115.568;2023-08-08T01:44:34;19.21;63.78
69598;SHT31;70000;51.176;-115.568;2023-08-08T01:47:08;19.07;64.10
69598;SHT31;70000;51.176;-115.568;2023-08-08T01:49:38;18.91;64.18
69598;SHT31;70000;51.176;-115.568;2023-08-08T01:52:12;18.81;64.96
69598;SHT31;70000;51.176;-115.568;2023-08-08T01:54:51;18.74;65.55
69598;SHT31;70000;51.176;-115.568;2023-08-08T01:57:33;18.67;65.36
69598;SHT31;70000;51.176;-115.568;2023-08-08T02:00:05;18.67;63.58
69598;SHT31;70000;51.176;-115.568;2023-08-08T02:02:41;18.60;63.44
69598;SHT31;70000;51.176;-115.568;2023-08-08T02:05:13;18.54;63.78
69598;SHT31;70000;51.176;-115.568;2023-08-08T02:07:48;18.49;64.07
69598;SHT31;70000;51.176;-115.568;2023-08-08T02:10:18;18.45;64.10
69598;SHT31;70000;51.176;-115.568;2023-08-08T02:12:49;18.38;64.57
69598;SHT31;70000;51.176;-115.568;2023-08-08T02:15:19;18.30;64.94
69598;SHT31;70000;51.176;-115.568;2023-08-08T02:17:49;18.27;65.65
69598;SHT31;70000;51.176;-115.568;2023-08-08T02:20:19;18.22;66.60
69598;SHT31;70000;51.176;-115.568;2023-08-08T02:52:40;18.08;63.72
69598;SHT31;70000;51.176;-115.568;2023-08-08T02:55:10;18.05;63.92
69598;SHT31;70000;51.176;-115.568;2023-08-08T02:57:43;17.95;64.09
69598;SHT31;70000;51.176;-115.568;2023-08-08T03:00:12;17.81;64.16
69598;SHT31;70000;51.176;-115.568;2023-08-08T03:02:42;17.67;64.54
69598;SHT31;70000;51.176;-115.568;2023-08-08T03:05:12;17.52;64.54
69598;SHT31;70000;51.176;-115.568;2023-08-08T03:07:41;17.39;64.50
69598;SHT31;70000;51.176;-115.568;2023-08-08T03:10:10;17.24;63.53
69598;SHT31;70000;51.176;-115.568;2023-08-08T03:12:41;17.15;63.43
69598;SHT31;70000;51.176;-115.568;2023-08-08T03:15:10;17.08;62.97
69598;SHT31;70000;51.176;-115.568;2023-08-08T03:17:40;16.95;62.71
69598;SHT31;70000;51.176;-115.568;2023-08-08T03:20:09;16.76;63.25
69598;SHT31;70000;51.176;-115.568;2023-08-08T03:22:39;16.55;64.07
69598;SHT31;70000;51.176;-115.568;2023-08-08T03:25:09;16.32;63.94
69598;SHT31;70000;51.176;-115.568;2023-08-08T03:27:38;16.16;66.57
69598;SHT31;70000;51.176;-115.568;2023-08-08T03:30:08;16.22;67.44
69598;SHT31;70000;51.176;-115.568;2023-08-08T03:32:37;16.22;66.34
69598;SHT31;70000;51.176;-115.568;2023-08-08T03:35:07;16.14;66.03
69598;SHT31;70000;51.176;-115.568;2023-08-08T03:37:43;16.13;67.49
69598;SHT31;70000;51.176;-115.568;2023-08-08T03:40:12;16.17;66.91
69598;SHT31;70000;51.176;-115.568;2023-08-08T03:42:42;16.19;65.45
69598;SHT31;70000;51.176;-115.568;2023-08-08T03:45:15;16.18;64.70
69598;SHT31;70000;51.176;-115.568;2023-08-08T03:47:44;16.18;64.45
69598;SHT31;70000;51.176;-115.568;2023-08-08T03:50:14;16.19;65.22
69598;SHT31;70000;51.176;-115.568;2023-08-08T03:52:43;16.23;65.74
69598;SHT31;70000;51.176;-115.568;2023-08-08T03:55:13;16.25;66.11
69598;SHT31;70000;51.176;-115.568;2023-08-08T03:57:43;16.26;65.10
69598;SHT31;70000;51.176;-115.568;2023-08-08T04:00:12;16.25;65.11
69598;SHT31;70000;51.176;-115.568;2023-08-08T04:02:42;16.25;64.82
69598;SHT31;70000;51.176;-115.568;2023-08-08T04:05:12;16.24;64.86
69598;SHT31;70000;51.176;-115.568;2023-08-08T04:07:41;16.22;64.72
69598;SHT31;70000;51.176;-115.568;2023-08-08T04:10:13;16.17;65.41
69598;SHT31;70000;51.176;-115.568;2023-08-08T04:12:44;16.12;66.19
69598;SHT31;70000;51.176;-115.568;2023-08-08T04:15:16;16.03;67.36
69598;SHT31;70000;51.176;-115.568;2023-08-08T04:17:48;15.96;67.89
69598;SHT31;70000;51.176;-115.568;2023-08-08T04:20:23;15.88;67.98
69598;SHT31;70000;51.176;-115.568;2023-08-08T04:22:53;15.79;68.33
69598;SHT31;70000;51.176;-115.568;2023-08-08T04:25:25;15.71;68.36
69598;SHT31;70000;51.176;-115.568;2023-08-08T04:27:58;15.62;68.83
69598;SHT31;70000;51.176;-115.568;2023-08-08T04:30:31;15.54;69.53
69598;SHT31;70000;51.176;-115.568;2023-08-08T04:33:19;15.47;70.05
69598;SHT31;70000;51.176;-115.568;2023-08-08T04:35:49;15.40;70.43
69598;SHT31;70000;51.176;-115.568;2023-08-08T04:38:18;15.36;70.68
69598;SHT31;70000;51.176;-115.568;2023-08-08T04:40:48;15.32;70.58
69598;SHT31;70000;51.176;-115.568;2023-08-08T04:43:18;15.28;70.55
69598;SHT31;70000;51.176;-115.568;2023-08-08T04:45:47;15.24;70.53
69598;SHT31;70000;51.176;-115.568;2023-08-08T04:48:17;15.23;70.65
69598;SHT31;70000;51.176;-115.568;2023-08-08T04:50:47;15.21;70.87
69598;SHT31;70000;51.176;-115.568;2023-08-08T04:53:17;15.21;71.13
69598;SHT31;70000;51.176;-115.568;2023-08-08T04:55:46;15.20;71.21
69598;SHT31;70000;51.176;-115.568;2023-08-08T04:58:15;15.18;70.80
69598;SHT31;70000;51.176;-115.568;2023-08-08T05:00:47;15.18;71.00
69598;SHT31;70000;51.176;-115.568;2023-08-08T05:03:18;15.15;71.51
69598;SHT31;70000;51.176;-115.568;2023-08-08T05:05:51;15.10;71.57
69598;SHT31;70000;51.176;-115.568;2023-08-08T05:08:20;15.06;72.03
69598;SHT31;70000;51.176;-115.568;2023-08-08T05:10:49;15.04;72.65
69598;SHT31;70000;51.176;-115.568;2023-08-08T05:13:19;15.04;72.73
69598;SHT31;70000;51.176;-115.568;2023-08-08T05:15:48;15.03;72.82
69598;SHT31;70000;51.176;-115.568;2023-08-08T05:18:17;15.03;72.96
69598;SHT31;70000;51.176;-115.568;2023-08-08T05:20:47;15.05;73.10
69598;SHT31;70000;51.176;-115.568;2023-08-08T05:23:16;15.07;73.29
69598;SHT31;70000;51.176;-115.568;2023-08-08T05:25:45;15.07;73.26
69598;SHT31;70000;51.176;-115.568;2023-08-08T05:28:15;15.08;73.41
69598;SHT31;70000;51.176;-115.568;2023-08-08T05:30:44;15.10;73.82
69598;SHT31;70000;51.176;-115.568;2023-08-08T05:33:14;15.11;74.18
69598;SHT31;70000;51.176;-115.568;2023-08-08T05:35:44;15.13;74.50
69598;SHT31;70000;51.176;-115.568;2023-08-08T05:38:13;15.15;74.57
69598;SHT31;70000;51.176;-115.568;2023-08-08T05:40:42;15.15;74.74
69598;SHT31;70000;51.176;-115.568;2023-08-08T05:43:11;15.13;74.93
69598;SHT31;70000;51.176;-115.568;2023-08-08T05:45:44;15.11;75.08
69598;SHT31;70000;51.176;-115.568;2023-08-08T05:48:14;15.13;75.65
69598;SHT31;70000;51.176;-115.568;2023-08-08T05:50:47;15.15;75.94
69598;SHT31;70000;51.176;-115.568;2023-08-08T05:53:16;15.17;76.27
69598;SHT31;70000;51.176;-115.568;2023-08-08T05:55:45;15.20;76.68
69598;SHT31;70000;51.176;-115.568;2023-08-08T05:58:16;15.18;76.41
69598;SHT31;70000;51.176;-115.568;2023-08-08T06:00:48;15.19;76.50
69598;SHT31;70000;51.176;-115.568;2023-08-08T06:03:18;15.19;76.42
69598;SHT31;70000;51.176;-115.568;2023-08-08T06:05:47;15.19;76.75
69598;SHT31;70000;51.176;-115.568;2023-08-08T06:08:16;15.17;77.03
69598;SHT31;70000;51.176;-115.568;2023-08-08T06:10:46;15.17;77.33
69598;SHT31;70000;51.176;-115.568;2023-08-08T06:16:38;15.17;77.69
69598;SHT31;70000;51.176;-115.568;2023-08-08T06:19:08;15.17;77.93
69598;SHT31;70000;51.176;-115.568;2023-08-08T06:21:37;15.14;78.11
69598;SHT31;70000;51.176;-115.568;2023-08-08T06:24:06;15.11;78.12
69598;SHT31;70000;51.176;-115.568;2023-08-08T06:26:35;15.09;78.13
69598;SHT31;70000;51.176;-115.568;2023-08-08T06:29:04;15.07;78.16
69598;SHT31;70000;51.176;-115.568;2023-08-08T06:31:32;15.06;77.98
69598;SHT31;70000;51.176;-115.568;2023-08-08T06:34:01;15.05;77.80
69598;SHT31;70000;51.176;-115.568;2023-08-08T06:36:30;15.02;77.79
69598;SHT31;70000;51.176;-115.568;2023-08-08T06:38:59;14.99;78.09
69598;SHT31;70000;51.176;-115.568;2023-08-08T06:41:28;14.98;78.25
69598;SHT31;70000;51.176;-115.568;2023-08-08T06:43:57;14.91;78.16
69598;SHT31;70000;51.176;-115.568;2023-08-08T06:46:25;14.84;78.21
69598;SHT31;70000;51.176;-115.568;2023-08-08T06:48:55;14.80;78.19
69598;SHT31;70000;51.176;-115.568;2023-08-08T06:51:25;14.77;77.88
69598;SHT31;70000;51.176;-115.568;2023-08-08T06:53:54;14.74;77.96
69598;SHT31;70000;51.176;-115.568;2023-08-08T06:56:23;14.70;78.25
69598;SHT31;70000;51.176;-115.568;2023-08-08T06:58:55;14.68;78.73
69598;SHT31;70000;51.176;-115.568;2023-08-08T07:01:27;14.67;79.05
69598;SHT31;70000;51.176;-115.568;2023-08-08T07:03:55;14.63;78.75
69598;SHT31;70000;51.176;-115.568;2023-08-08T07:06:24;14.60;78.63
69598;SHT31;70000;51.176;-115.568;2023-08-08T07:08:53;14.61;78.64
69598;SHT31;70000;51.176;-115.568;2023-08-08T07:11:21;14.63;79.14
69598;SHT31;70000;51.176;-115.568;2023-08-08T07:13:51;14.61;79.35
69598;SHT31;70000;51.176;-115.568;2023-08-08T07:16:20;14.62;79.56
69598;SHT31;70000;51.176;-115.568;2023-08-08T07:18:49;14.62;79.59
69598;SHT31;70000;51.176;-115.568;2023-08-08T07:21:19;14.63;79.50
69598;SHT31;70000;51.176;-115.568;2023-08-08T07:23:48;14.62;79.67
69598;SHT31;70000;51.176;-115.568;2023-08-08T07:26:17;14.63;79.88
69598;SHT31;70000;51.176;-115.568;2023-08-08T07:28:45;14.62;80.08
69598;SHT31;70000;51.176;-115.568;2023-08-08T07:31:15;14.63;80.07
69598;SHT31;70000;51.176;-115.568;2023-08-08T07:33:43;14.60;80.05
69598;SHT31;70000;51.176;-115.568;2023-08-08T07:36:12;14.56;80.18
69598;SHT31;70000;51.176;-115.568;2023-08-08T07:38:41;14.56;80.29
69598;SHT31;70000;51.176;-115.568;2023-08-08T07:41:10;14.55;80.44
69598;SHT31;70000;51.176;-115.568;2023-08-08T07:43:38;14.55;80.43
69598;SHT31;70000;51.176;-115.568;2023-08-08T07:46:07;14.51;80.36
69598;SHT31;70000;51.176;-115.568;2023-08-08T07:48:36;14.52;80.42
69598;SHT31;70000;51.176;-115.568;2023-08-08T07:51:04;14.51;80.40
69598;SHT31;70000;51.176;-115.568;2023-08-08T07:53:33;14.49;80.42
69598;SHT31;70000;51.176;-115.568;2023-08-08T07:56:04;14.49;80.38
69598;SHT31;70000;51.176;-115.568;2023-08-08T07:58:36;14.48;80.41
69598;SHT31;70000;51.176;-115.568;2023-08-08T08:01:04;14.50;80.59
69598;SHT31;70000;51.176;-115.568;2023-08-08T08:03:34;14.52;80.40
69598;SHT31;70000;51.176;-115.568;2023-08-08T08:06:03;14.50;80.39
69598;SHT31;70000;51.176;-115.568;2023-08-08T08:08:32;14.51;80.61
69598;SHT31;70000;51.176;-115.568;2023-08-08T08:11:01;14.46;80.59
69598;SHT31;70000;51.176;-115.568;2023-08-08T08:13:30;14.42;80.69
69598;SHT31;70000;51.176;-115.568;2023-08-08T08:15:59;14.38;80.75
69598;SHT31;70000;51.176;-115.568;2023-08-08T08:18:28;14.33;80.65
69598;SHT31;70000;51.176;-115.568;2023-08-08T08:20:56;14.29;80.60
69598;SHT31;70000;51.176;-115.568;2023-08-08T08:23:25;14.26;80.60
69598;SHT31;70000;51.176;-115.568;2023-08-08T08:25:54;14.21;80.79
69598;SHT31;70000;51.176;-115.568;2023-08-08T08:28:23;14.19;81.14
69598;SHT31;70000;51.176;-115.568;2023-08-08T08:30:52;14.16;81.34
69598;SHT31;70000;51.176;-115.568;2023-08-08T08:33:21;14.12;81.30
69598;SHT31;70000;51.176;-115.568;2023-08-08T08:35:50;14.08;81.35
69598;SHT31;70000;51.176;-115.568;2023-08-08T08:38:18;14.03;81.47
69598;SHT31;70000;51.176;-115.568;2023-08-08T08:40:47;14.01;81.60
69598;SHT31;70000;51.176;-115.568;2023-08-08T08:43:16;13.97;81.60
69598;SHT31;70000;51.176;-115.568;2023-08-08T08:45:49;13.93;81.60
69598;SHT31;70000;51.176;-115.568;2023-08-08T08:48:23;13.91;81.64
69598;SHT31;70000;51.176;-115.568;2023-08-08T08:50:53;13.88;81.61
69598;SHT31;70000;51.176;-115.568;2023-08-08T08:53:22;13.85;81.68
69598;SHT31;70000;51.176;-115.568;2023-08-08T08:55:51;13.81;81.70
69598;SHT31;70000;51.176;-115.568;2023-08-08T08:58:21;13.75;81.70
69598;SHT31;70000;51.176;-115.568;2023-08-08T09:00:52;13.71;81.67
69598;SHT31;70000;51.176;-115.568;2023-08-08T09:03:22;13.66;81.67
69598;SHT31;70000;51.176;-115.568;2023-08-08T09:05:53;13.63;81.69
69598;SHT31;70000;51.176;-115.568;2023-08-08T09:08:23;13.59;81.71
69598;SHT31;70000;51.176;-115.568;2023-08-08T09:10:52;13.56;81.75
69598;SHT31;70000;51.176;-115.568;2023-08-08T09:13:20;13.54;81.82
69598;SHT31;70000;51.176;-115.568;2023-08-08T09:15:52;13.53;81.88
69598;SHT31;70000;51.176;-115.568;2023-08-08T09:18:22;13.52;81.92
69598;SHT31;70000;51.176;-115.568;2023-08-08T09:20:51;13.51;82.00
69598;SHT31;70000;51.176;-115.568;2023-08-08T09:23:20;13.49;82.06
69598;SHT31;70000;51.176;-115.568;2023-08-08T09:25:49;13.45;82.19
69598;SHT31;70000;51.176;-115.568;2023-08-08T09:28:18;13.42;82.27
69598;SHT31;70000;51.176;-115.568;2023-08-08T09:30:49;13.38;82.13
69598;SHT31;70000;51.176;-115.568;2023-08-08T09:33:18;13.32;82.07
69598;SHT31;70000;51.176;-115.568;2023-08-08T09:35:47;13.29;82.15
69598;SHT31;70000;51.176;-115.568;2023-08-08T09:38:15;13.25;82.10
69598;SHT31;70000;51.176;-115.568;2023-08-08T09:40:44;13.18;82.12
69598;SHT31;70000;51.176;-115.568;2023-08-08T09:43:13;13.14;82.29
69598;SHT31;70000;51.176;-115.568;2023-08-08T09:45:42;13.10;82.45
69598;SHT31;70000;51.176;-115.568;2023-08-08T09:48:11;13.08;82.40
69598;SHT31;70000;51.176;-115.568;2023-08-08T09:50:41;13.05;82.43
69598;SHT31;70000;51.176;-115.568;2023-08-08T09:53:13;13.02;82.49
69598;SHT31;70000;51.176;-115.568;2023-08-08T09:55:43;12.99;82.59
69598;SHT31;70000;51.176;-115.568;2023-08-08T09:58:12;12.94;82.60
69598;SHT31;70000;51.176;-115.568;2023-08-08T10:00:41;12.92;82.50
69598;SHT31;70000;51.176;-115.568;2023-08-08T10:03:11;12.87;82.60
69598;SHT31;70000;51.176;-115.568;2023-08-08T10:05:40;12.84;82.71
69598;SHT31;70000;51.176;-115.568;2023-08-08T10:08:09;12.82;82.77
69598;SHT31;70000;51.176;-115.568;2023-08-08T10:10:38;12.80;82.70
69598;SHT31;70000;51.176;-115.568;2023-08-08T10:13:09;12.77;82.73
69598;SHT31;70000;51.176;-115.568;2023-08-08T10:15:47;12.75;82.84
69598;SHT31;70000;51.176;-115.568;2023-08-08T10:18:17;12.72;82.93
69598;SHT31;70000;51.176;-115.568;2023-08-08T10:20:50;12.69;82.96
69598;SHT31;70000;51.176;-115.568;2023-08-08T10:23:20;12.66;82.93
69598;SHT31;70000;51.176;-115.568;2023-08-08T10:25:50;12.64;83.09
69598;SHT31;70000;51.176;-115.568;2023-08-08T10:28:20;12.63;83.13
69598;SHT31;70000;51.176;-115.568;2023-08-08T10:30:54;12.60;83.09
69598;SHT31;70000;51.176;-115.568;2023-08-08T10:33:39;12.57;83.00
69598;SHT31;70000;51.176;-115.568;2023-08-08T10:36:12;12.54;83.06
69598;SHT31;70000;51.176;-115.568;2023-08-08T10:38:42;12.51;83.02
69598;SHT31;70000;51.176;-115.568;2023-08-08T10:41:14;12.48;82.96
69598;SHT31;70000;51.176;-115.568;2023-08-08T10:43:47;12.46;83.02
69598;SHT31;70000;51.176;-115.568;2023-08-08T10:46:26;12.45;83.12
69598;SHT31;70000;51.176;-115.568;2023-08-08T10:48:58;12.44;83.30
69598;SHT31;70000;51.176;-115.568;2023-08-08T10:51:35;12.44;83.30
69598;SHT31;70000;51.176;-115.568;2023-08-08T10:54:07;12.43;83.11
69598;SHT31;70000;51.176;-115.568;2023-08-08T10:56:59;12.39;83.03
69598;SHT31;70000;51.176;-115.568;2023-08-08T10:59:36;12.36;82.97
69598;SHT31;70000;51.176;-115.568;2023-08-08T11:02:06;12.28;82.91
69598;SHT31;70000;51.176;-115.568;2023-08-08T11:04:37;12.24;82.95
69598;SHT31;70000;51.176;-115.568;2023-08-08T11:07:06;12.25;83.23
69598;SHT31;70000;51.176;-115.568;2023-08-08T11:09:36;12.27;83.28
69598;SHT31;70000;51.176;-115.568;2023-08-08T11:12:05;12.29;83.30
69598;SHT31;70000;51.176;-115.568;2023-08-08T11:14:41;12.30;83.33
69598;SHT31;70000;51.176;-115.568;2023-08-08T11:17:10;12.32;83.52
69598;SHT31;70000;51.176;-115.568;2023-08-08T11:19:40;12.37;83.66
69598;SHT31;70000;51.176;-115.568;2023-08-08T11:22:09;12.40;83.62
69598;SHT31;70000;51.176;-115.568;2023-08-08T11:24:40;12.41;83.47
69598;SHT31;70000;51.176;-115.568;2023-08-08T11:27:12;12.36;83.32
69598;SHT31;70000;51.176;-115.568;2023-08-08T11:30:02;12.32;83.25
69598;SHT31;70000;51.176;-115.568;2023-08-08T11:32:34;12.25;83.12
69598;SHT31;70000;51.176;-115.568;2023-08-08T11:35:04;12.19;83.14
69598;SHT31;70000;51.176;-115.568;2023-08-08T11:37:34;12.13;83.29
69598;SHT31;70000;51.176;-115.568;2023-08-08T11:40:05;12.10;83.38
69598;SHT31;70000;51.176;-115.568;2023-08-08T11:42:37;12.10;83.37
69598;SHT31;70000;51.176;-115.568;2023-08-08T11:45:08;12.10;83.32
69598;SHT31;70000;51.176;-115.568;2023-08-08T11:47:39;12.11;83.22
69598;SHT31;70000;51.176;-115.568;2023-08-08T11:50:10;12.07;83.08
69598;SHT31;70000;51.176;-115.568;2023-08-08T11:52:40;11.98;82.80
69598;SHT31;70000;51.176;-115.568;2023-08-08T11:55:10;11.94;82.79
69598;SHT31;70000;51.176;-115.568;2023-08-08T11:57:40;11.88;82.83
69598;SHT31;70000;51.176;-115.568;2023-08-08T12:00:10;11.89;82.86
69598;SHT31;70000;51.176;-115.568;2023-08-08T12:02:40;11.87;82.75
69598;SHT31;70000;51.176;-115.568;2023-08-08T12:05:11;11.83;82.88
69598;SHT31;70000;51.176;-115.568;2023-08-08T12:07:44;11.82;82.97
69598;SHT31;70000;51.176;-115.568;2023-08-08T12:10:17;11.80;83.04
69598;SHT31;70000;51.176;-115.568;2023-08-08T12:12:53;11.79;83.17
69598;SHT31;70000;51.176;-115.568;2023-08-08T12:15:29;11.80;83.32
69598;SHT31;70000;51.176;-115.568;2023-08-08T12:18:02;11.81;83.43
69598;SHT31;70000;51.176;-115.568;2023-08-08T12:20:31;11.80;83.43
69598;SHT31;70000;51.176;-115.568;2023-08-08T12:23:01;11.81;83.52
69598;SHT31;70000;51.176;-115.568;2023-08-08T12:25:30;11.84;83.57
69598;SHT31;70000;51.176;-115.568;2023-08-08T12:28:01;11.84;83.43
69598;SHT31;70000;51.176;-115.568;2023-08-08T12:30:31;11.84;83.51
69598;SHT31;70000;51.176;-115.568;2023-08-08T12:33:00;11.83;83.41
69598;SHT31;70000;51.176;-115.568;2023-08-08T12:35:29;11.79;83.39
69598;SHT31;70000;51.176;-115.568;2023-08-08T12:37:57;11.76;83.55
69598;SHT31;70000;51.176;-115.568;2023-08-08T12:40:26;11.78;83.60
69598;SHT31;70000;51.176;-115.568;2023-08-08T12:42:55;11.76;83.54
69598;SHT31;70000;51.176;-115.568;2023-08-08T12:45:23;11.79;83.63
69598;SHT31;70000;51.176;-115.568;2023-08-08T12:47:52;11.80;83.62
69598;SHT31;70000;51.176;-115.568;2023-08-08T12:50:22;11.79;83.67
69598;SHT31;70000;51.176;-115.568;2023-08-08T12:52:51;11.78;83.68
69598;SHT31;70000;51.176;-115.568;2023-08-08T12:55:19;11.75;83.84
69598;SHT31;70000;51.176;-115.568;2023-08-08T12:57:48;11.77;83.87
69598;SHT31;70000;51.176;-115.568;2023-08-08T13:00:18;11.79;83.91
69598;SHT31;70000;51.176;-115.568;2023-08-08T13:02:47;11.84;84.00
69598;SHT31;70000;51.176;-115.568;2023-08-08T13:05:16;11.88;83.94
69598;SHT31;70000;51.176;-115.568;2023-08-08T13:07:45;11.91;83.87
69598;SHT31;70000;51.176;-115.568;2023-08-08T13:10:14;11.95;83.89
69598;SHT31;70000;51.176;-115.568;2023-08-08T13:12:43;11.96;83.78
69598;SHT31;70000;51.176;-115.568;2023-08-08T13:15:12;12.00;83.75
69598;SHT31;70000;51.176;-115.568;2023-08-08T13:17:41;12.04;83.70
69598;SHT31;70000;51.176;-115.568;2023-08-08T13:20:10;12.07;83.64
69598;SHT31;70000;51.176;-115.568;2023-08-08T13:22:39;12.07;83.59
69598;SHT31;70000;51.176;-115.568;2023-08-08T13:25:10;12.10;83.67
69598;SHT31;70000;51.176;-115.568;2023-08-08T13:27:39;12.12;83.58
69598;SHT31;70000;51.176;-115.568;2023-08-08T13:30:09;12.14;83.75
69598;SHT31;70000;51.176;-115.568;2023-08-08T13:32:39;12.16;83.72
69598;SHT31;70000;51.176;-115.568;2023-08-08T13:35:08;12.19;83.68
69598;SHT31;70000;51.176;-115.568;2023-08-08T13:37:37;12.19;83.47
69598;SHT31;70000;51.176;-115.568;2023-08-08T13:40:06;12.20;83.55
69598;SHT31;70000;51.176;-115.568;2023-08-08T13:45:46;12.29;83.63
69598;SHT31;70000;51.176;-115.568;2023-08-08T13:48:20;12.34;83.51
69598;SHT31;70000;51.176;-115.568;2023-08-08T13:50:50;12.36;83.25
69598;SHT31;70000;51.176;-115.568;2023-08-08T13:53:24;12.40;83.26
69598;SHT31;70000;51.176;-115.568;2023-08-08T13:55:53;12.43;83.20
69598;SHT31;70000;51.176;-115.568;2023-08-08T14:05:17;12.55;82.90
69598;SHT31;70000;51.176;-115.568;2023-08-08T14:07:46;12.60;82.94
69598;SHT31;70000;51.176;-115.568;2023-08-08T14:10:16;12.67;82.86
69598;SHT31;70000;51.176;-115.568;2023-08-08T14:12:46;12.73;82.72
69598;SHT31;70000;51.176;-115.568;2023-08-08T14:15:17;12.74;82.56
69598;SHT31;70000;51.176;-115.568;2023-08-08T14:17:47;12.75;82.50
69598;SHT31;70000;51.176;-115.568;2023-08-08T14:20:16;12.80;82.73
69598;SHT31;70000;51.176;-115.568;2023-08-08T14:22:46;12.86;82.71
69598;SHT31;70000;51.176;-115.568;2023-08-08T14:25:19;12.91;82.34
69598;SHT31;70000;51.176;-115.568;2023-08-08T14:27:51;12.94;82.33
69598;SHT31;70000;51.176;-115.568;2023-08-08T14:30:20;12.96;82.17
69598;SHT31;70000;51.176;-115.568;2023-08-08T14:32:57;12.99;82.03
69598;SHT31;70000;51.176;-115.568;2023-08-08T14:35:26;13.01;82.05
69598;SHT31;70000;51.176;-115.568;2023-08-08T14:37:58;13.03;82.00
69598;SHT31;70000;51.176;-115.568;2023-08-08T14:40:28;13.01;81.69
69598;SHT31;70000;51.176;-115.568;2023-08-08T14:42:57;13.00;81.66
69598;SHT31;70000;51.176;-115.568;2023-08-08T14:45:26;13.03;81.78
69598;SHT31;70000;51.176;-115.568;2023-08-08T14:47:57;13.07;81.69
69598;SHT31;70000;51.176;-115.568;2023-08-08T14:50:26;13.08;81.37
69598;SHT31;70000;51.176;-115.568;2023-08-08T14:52:56;13.09;81.31
69598;SHT31;70000;51.176;-115.568;2023-08-08T14:55:25;13.12;81.36
69598;SHT31;70000;51.176;-115.568;2023-08-08T14:57:54;13.16;81.55
69598;SHT31;70000;51.176;-115.568;2023-08-08T15:00:23;13.23;81.44
69598;SHT31;70000;51.176;-115.568;2023-08-08T15:02:53;13.27;81.51
69598;SHT31;70000;51.176;-115.568;2023-08-08T15:05:22;13.32;81.26
69598;SHT31;70000;51.176;-115.568;2023-08-08T15:07:51;13.35;80.90
69598;SHT31;70000;51.176;-115.568;2023-08-08T15:10:20;13.38;80.77
69598;SHT31;70000;51.176;-115.568;2023-08-08T15:12:49;13.39;80.70
69598;SHT31;70000;51.176;-115.568;2023-08-08T15:15:19;13.39;80.47
69598;SHT31;70000;51.176;-115.568;2023-08-08T15:17:50;13.46;80.76
69598;SHT31;70000;51.176;-115.568;2023-08-08T15:20:19;13.56;80.67
69598;SHT31;70000;51.176;-115.568;2023-08-08T15:22:49;13.66;80.85
69598;SHT31;70000;51.176;-115.568;2023-08-08T15:25:19;13.76;80.83
69598;SHT31;70000;51.176;-115.568;2023-08-08T15:27:48;13.81;80.22
69598;SHT31;70000;51.176;-115.568;2023-08-08T15:30:17;13.82;80.15
69598;SHT31;70000;51.176;-115.568;2023-08-08T15:32:49;13.85;79.93
69598;SHT31;70000;51.176;-115.568;2023-08-08T15:35:21;13.91;80.05
69598;SHT31;70000;51.176;-115.568;2023-08-08T15:37:54;13.96;79.76
69598;SHT31;70000;51.176;-115.568;2023-08-08T15:40:25;13.98;79.75
69598;SHT31;70000;51.176;-115.568;2023-08-08T15:42:55;14.04;79.77
69598;SHT31;70000;51.176;-115.568;2023-08-08T15:45:24;14.07;79.70
69598;SHT31;70000;51.176;-115.568;2023-08-08T15:47:54;14.14;79.61
69598;SHT31;70000;51.176;-115.568;2023-08-08T15:50:23;14.18;79.35
69598;SHT31;70000;51.176;-115.568;2023-08-08T15:52:52;14.21;79.19
69598;SHT31;70000;51.176;-115.568;2023-08-08T15:55:24;14.28;79.37
69598;SHT31;70000;51.176;-115.568;2023-08-08T15:57:53;14.35;79.41
69598;SHT31;70000;51.176;-115.568;2023-08-08T16:00:23;14.44;79.54
69598;SHT31;70000;51.176;-115.568;2023-08-08T16:02:54;14.51;79.25